Arrowsic, Maine
Current Conditions -  °F | °C
As of 2:53 AM on Saturday 25 Oct 2014 (Local Time) from KIWI Reporting Station
Overcast Overcast  
Wind Chill:   Ceiling: 5500
Heat Index:   Visibility: 10mi
Dew Point:   Wind: 0mph
Humidity: 86%   Direction: NA
Pressure: 29.69"   Gusts: NA
Location:  43.8797°N, 69.8408°W
Report Text: KIWI 250653Z AUTO 00000KT 10SM BKN055 OVC095 08/06 A2969 RMK AO2 SLP054 T00830061
Loading
Personal Weather Stations






























Interactive Weather Map
Tropical Storm Tracking
New forecast layout! Learn more

10-Day Weather Forecast

Advertisements
Track Severe Weather on mobile